AZU4468 SBEG-SWPI
Flight info
| Callsign | AZU4468 |
|---|---|
| Flight time | 0h 51m |
| Altitude | 17000 |
| Route | ERVEL |
| Aircraft | AT76/M-SDFGIRY/S |
Departure
| Time | 2026-04-21 15:18 |
|---|---|
| Airport | Eduardo Gomes International Airport (SBEG) |
Arrival
| Time | 2026-04-21 16:10 |
|---|---|
| Airport | Parintins Airport (SWPI) |
| Time | Latitude | Longitude | Altitude | Speed | Heading |
|---|---|---|---|---|---|
| 2026-04-21 14:35 | -3.03225 | -60.04357 | 267 ft | 0 kts | 345° |
| 2026-04-21 15:03 | -3.03224 | -60.04357 | 267 ft | 0 kts | 345° |
| 2026-04-21 15:04 | -3.03232 | -60.04355 | 267 ft | 2 kts | 345° |
| 2026-04-21 15:04 | -3.03246 | -60.04351 | 267 ft | 2 kts | 345° |
| 2026-04-21 15:04 | -3.03261 | -60.04348 | 267 ft | 2 kts | 345° |
| 2026-04-21 15:04 | -3.03273 | -60.04344 | 267 ft | 0 kts | 345° |
| 2026-04-21 15:05 | -3.03283 | -60.04340 | 267 ft | 2 kts | 320° |
| 2026-04-21 15:05 | -3.03294 | -60.04314 | 267 ft | 1 kts | 257° |
| 2026-04-21 15:05 | -3.03293 | -60.04311 | 267 ft | 0 kts | 255° |
| 2026-04-21 15:09 | -3.03294 | -60.04316 | 267 ft | 1 kts | 256° |
| 2026-04-21 15:09 | -3.03298 | -60.04332 | 267 ft | 3 kts | 255° |
| 2026-04-21 15:10 | -3.03312 | -60.04372 | 267 ft | 8 kts | 248° |
| 2026-04-21 15:10 | -3.03330 | -60.04431 | 267 ft | 11 kts | 257° |
| 2026-04-21 15:10 | -3.03345 | -60.04497 | 267 ft | 7 kts | 260° |
| 2026-04-21 15:10 | -3.03353 | -60.04552 | 267 ft | 7 kts | 265° |
| 2026-04-21 15:11 | -3.03355 | -60.04597 | 267 ft | 6 kts | 268° |
| 2026-04-21 15:11 | -3.03353 | -60.04655 | 267 ft | 9 kts | 272° |
| 2026-04-21 15:11 | -3.03356 | -60.04722 | 267 ft | 10 kts | 258° |
| 2026-04-21 15:11 | -3.03381 | -60.04789 | 267 ft | 10 kts | 239° |
| 2026-04-21 15:12 | -3.03432 | -60.04850 | 267 ft | 11 kts | 219° |
| 2026-04-21 15:12 | -3.03499 | -60.04900 | 267 ft | 12 kts | 218° |
| 2026-04-21 15:12 | -3.03556 | -60.04964 | 267 ft | 15 kts | 236° |
| 2026-04-21 15:12 | -3.03596 | -60.05064 | 267 ft | 13 kts | 255° |
| 2026-04-21 15:13 | -3.03616 | -60.05140 | 267 ft | 9 kts | 255° |
| 2026-04-21 15:13 | -3.03630 | -60.05194 | 267 ft | 7 kts | 255° |
| 2026-04-21 15:13 | -3.03648 | -60.05262 | 267 ft | 10 kts | 255° |
| 2026-04-21 15:13 | -3.03666 | -60.05333 | 267 ft | 10 kts | 256° |
| 2026-04-21 15:14 | -3.03680 | -60.05402 | 267 ft | 10 kts | 259° |
| 2026-04-21 15:14 | -3.03688 | -60.05472 | 267 ft | 9 kts | 266° |
| 2026-04-21 15:14 | -3.03691 | -60.05540 | 267 ft | 9 kts | 270° |
| 2026-04-21 15:14 | -3.03690 | -60.05605 | 267 ft | 9 kts | 270° |
| 2026-04-21 15:15 | -3.03690 | -60.05669 | 267 ft | 9 kts | 270° |
| 2026-04-21 15:15 | -3.03689 | -60.05733 | 267 ft | 9 kts | 269° |
| 2026-04-21 15:15 | -3.03690 | -60.05796 | 267 ft | 8 kts | 270° |
| 2026-04-21 15:15 | -3.03690 | -60.05858 | 267 ft | 9 kts | 270° |
| 2026-04-21 15:16 | -3.03689 | -60.05919 | 267 ft | 8 kts | 270° |
| 2026-04-21 15:16 | -3.03689 | -60.05990 | 267 ft | 11 kts | 270° |
| 2026-04-21 15:16 | -3.03689 | -60.06078 | 267 ft | 13 kts | 269° |
| 2026-04-21 15:16 | -3.03719 | -60.06155 | 267 ft | 11 kts | 217° |
| 2026-04-21 15:17 | -3.03797 | -60.06176 | 267 ft | 12 kts | 180° |
| 2026-04-21 15:17 | -3.03859 | -60.06128 | 267 ft | 19 kts | 92° |
| 2026-04-21 15:17 | -3.03858 | -60.05674 | 267 ft | 103 kts | 90° |
| 2026-04-21 15:17 | -3.03872 | -60.04827 | 456 ft | 132 kts | 90° |
| 2026-04-21 15:18 | -3.03883 | -60.03852 | 805 ft | 148 kts | 90° |
| 2026-04-21 15:18 | -3.03868 | -60.02778 | 1113 ft | 161 kts | 88° |
| 2026-04-21 15:18 | -3.03929 | -60.01627 | 1400 ft | 172 kts | 92° |
| 2026-04-21 15:18 | -3.04018 | -60.00352 | 1612 ft | 192 kts | 93° |
| 2026-04-21 15:19 | -3.04102 | -59.98983 | 1937 ft | 202 kts | 93° |
| 2026-04-21 15:19 | -3.04189 | -59.97552 | 2270 ft | 209 kts | 93° |
| 2026-04-21 15:19 | -3.04275 | -59.96080 | 2621 ft | 213 kts | 93° |
| 2026-04-21 15:19 | -3.04362 | -59.94595 | 2987 ft | 214 kts | 92° |
| 2026-04-21 15:20 | -3.04450 | -59.93111 | 3366 ft | 215 kts | 93° |
| 2026-04-21 15:20 | -3.04538 | -59.91630 | 3742 ft | 215 kts | 93° |
| 2026-04-21 15:20 | -3.04626 | -59.90131 | 4123 ft | 215 kts | 93° |
| 2026-04-21 15:20 | -3.04716 | -59.88646 | 4499 ft | 215 kts | 93° |
| 2026-04-21 15:21 | -3.04801 | -59.87157 | 4876 ft | 215 kts | 93° |
| 2026-04-21 15:21 | -3.04885 | -59.85672 | 5250 ft | 214 kts | 93° |
| 2026-04-21 15:21 | -3.04962 | -59.84266 | 5586 ft | 214 kts | 93° |
| 2026-04-21 15:21 | -3.05043 | -59.82774 | 5942 ft | 214 kts | 93° |
| 2026-04-21 15:22 | -3.05123 | -59.81302 | 6291 ft | 214 kts | 93° |
| 2026-04-21 15:22 | -3.05205 | -59.79820 | 6646 ft | 214 kts | 93° |
| 2026-04-21 15:22 | -3.05291 | -59.78337 | 7000 ft | 213 kts | 93° |
| 2026-04-21 15:22 | -3.05379 | -59.76855 | 7358 ft | 212 kts | 93° |
| 2026-04-21 15:23 | -3.05469 | -59.75393 | 7688 ft | 213 kts | 92° |
| 2026-04-21 15:23 | -3.05563 | -59.73909 | 8020 ft | 213 kts | 93° |
| 2026-04-21 15:23 | -3.05657 | -59.72443 | 8348 ft | 213 kts | 92° |
| 2026-04-21 15:23 | -3.05759 | -59.70955 | 8678 ft | 213 kts | 92° |
| 2026-04-21 15:24 | -3.05861 | -59.69492 | 9007 ft | 212 kts | 93° |
| 2026-04-21 15:24 | -3.05964 | -59.68015 | 9326 ft | 212 kts | 93° |
| 2026-04-21 15:24 | -3.06067 | -59.66533 | 9637 ft | 213 kts | 93° |
| 2026-04-21 15:24 | -3.06168 | -59.65051 | 9944 ft | 213 kts | 92° |
| 2026-04-21 15:25 | -3.06271 | -59.63582 | 10238 ft | 213 kts | 93° |
| 2026-04-21 15:25 | -3.06354 | -59.62107 | 10532 ft | 213 kts | 92° |
| 2026-04-21 15:25 | -3.06428 | -59.60632 | 10817 ft | 214 kts | 92° |
| 2026-04-21 15:25 | -3.06506 | -59.59137 | 11109 ft | 214 kts | 91° |
| 2026-04-21 15:26 | -3.06583 | -59.57663 | 11391 ft | 215 kts | 92° |
| 2026-04-21 15:26 | -3.06663 | -59.56174 | 11680 ft | 215 kts | 92° |
| 2026-04-21 15:26 | -3.06744 | -59.54666 | 11963 ft | 214 kts | 91° |
| 2026-04-21 15:26 | -3.06823 | -59.53180 | 12246 ft | 214 kts | 92° |
| 2026-04-21 15:27 | -3.06897 | -59.51714 | 12521 ft | 213 kts | 92° |
| 2026-04-21 15:27 | -3.06973 | -59.50222 | 12805 ft | 213 kts | 91° |
| 2026-04-21 15:27 | -3.07046 | -59.48752 | 13088 ft | 212 kts | 92° |
| 2026-04-21 15:27 | -3.07119 | -59.47276 | 13371 ft | 211 kts | 92° |
| 2026-04-21 15:28 | -3.07193 | -59.45834 | 13649 ft | 209 kts | 92° |
| 2026-04-21 15:28 | -3.07267 | -59.44385 | 13929 ft | 208 kts | 92° |
| 2026-04-21 15:28 | -3.07327 | -59.42940 | 14184 ft | 207 kts | 91° |
| 2026-04-21 15:28 | -3.07376 | -59.41515 | 14440 ft | 206 kts | 91° |
| 2026-04-21 15:29 | -3.07424 | -59.40080 | 14689 ft | 205 kts | 91° |
| 2026-04-21 15:29 | -3.07470 | -59.38650 | 14937 ft | 204 kts | 91° |
| 2026-04-21 15:29 | -3.07515 | -59.37240 | 15190 ft | 203 kts | 90° |
| 2026-04-21 15:29 | -3.07561 | -59.35842 | 15456 ft | 201 kts | 90° |
| 2026-04-21 15:30 | -3.07611 | -59.34443 | 15717 ft | 200 kts | 91° |
| 2026-04-21 15:30 | -3.07661 | -59.33057 | 15962 ft | 198 kts | 90° |
| 2026-04-21 15:30 | -3.07715 | -59.31705 | 16208 ft | 196 kts | 91° |
| 2026-04-21 15:30 | -3.07768 | -59.30342 | 16465 ft | 194 kts | 90° |
| 2026-04-21 15:31 | -3.07822 | -59.29001 | 16724 ft | 192 kts | 90° |
| 2026-04-21 15:31 | -3.07876 | -59.27672 | 16906 ft | 191 kts | 91° |
| 2026-04-21 15:31 | -3.07929 | -59.26331 | 16944 ft | 199 kts | 90° |
| 2026-04-21 15:31 | -3.07984 | -59.24914 | 16951 ft | 207 kts | 90° |
| 2026-04-21 15:32 | -3.08038 | -59.23456 | 16950 ft | 214 kts | 91° |
| 2026-04-21 15:32 | -3.08087 | -59.21951 | 16953 ft | 220 kts | 90° |
| 2026-04-21 15:32 | -3.08138 | -59.20404 | 16949 ft | 225 kts | 91° |
| 2026-04-21 15:32 | -3.08200 | -59.18813 | 16949 ft | 229 kts | 91° |
| 2026-04-21 15:33 | -3.08275 | -59.17218 | 16947 ft | 233 kts | 91° |
| 2026-04-21 15:33 | -3.08356 | -59.15590 | 16946 ft | 236 kts | 91° |
| 2026-04-21 15:33 | -3.08439 | -59.13929 | 16944 ft | 238 kts | 91° |
| 2026-04-21 15:33 | -3.08527 | -59.12266 | 16945 ft | 240 kts | 91° |
| 2026-04-21 15:34 | -3.08615 | -59.10585 | 16949 ft | 242 kts | 91° |
| 2026-04-21 15:34 | -3.08703 | -59.08913 | 16948 ft | 243 kts | 91° |
| 2026-04-21 15:34 | -3.08791 | -59.07222 | 16945 ft | 244 kts | 91° |
| 2026-04-21 15:34 | -3.08879 | -59.05494 | 16949 ft | 245 kts | 91° |
| 2026-04-21 15:35 | -3.08962 | -59.03793 | 16949 ft | 246 kts | 91° |
| 2026-04-21 15:35 | -3.09044 | -59.02078 | 16945 ft | 246 kts | 91° |
| 2026-04-21 15:35 | -3.09121 | -59.00364 | 16945 ft | 247 kts | 91° |
| 2026-04-21 15:35 | -3.09195 | -58.98642 | 16944 ft | 247 kts | 91° |
| 2026-04-21 15:36 | -3.09270 | -58.96923 | 16941 ft | 248 kts | 91° |
| 2026-04-21 15:36 | -3.09347 | -58.95212 | 16942 ft | 248 kts | 91° |
| 2026-04-21 15:36 | -3.09427 | -58.93474 | 16948 ft | 249 kts | 91° |
| 2026-04-21 15:36 | -3.09509 | -58.91748 | 16950 ft | 249 kts | 91° |
| 2026-04-21 15:37 | -3.09592 | -58.90011 | 16947 ft | 249 kts | 91° |
| 2026-04-21 15:37 | -3.09670 | -58.88288 | 16945 ft | 249 kts | 91° |
| 2026-04-21 15:37 | -3.09750 | -58.86565 | 16948 ft | 249 kts | 91° |
| 2026-04-21 15:37 | -3.09827 | -58.84837 | 16943 ft | 249 kts | 91° |
| 2026-04-21 15:38 | -3.09903 | -58.83092 | 16945 ft | 249 kts | 91° |
| 2026-04-21 15:38 | -3.09976 | -58.81366 | 16944 ft | 249 kts | 91° |
| 2026-04-21 15:38 | -3.10046 | -58.79644 | 16946 ft | 249 kts | 91° |
| 2026-04-21 15:38 | -3.10114 | -58.77911 | 16944 ft | 249 kts | 91° |
| 2026-04-21 15:39 | -3.10181 | -58.76178 | 16948 ft | 249 kts | 91° |
| 2026-04-21 15:39 | -3.10248 | -58.74432 | 16947 ft | 250 kts | 91° |
| 2026-04-21 15:39 | -3.10314 | -58.72693 | 16946 ft | 249 kts | 91° |
| 2026-04-21 15:39 | -3.10379 | -58.70977 | 16947 ft | 250 kts | 91° |
| 2026-04-21 15:40 | -3.10445 | -58.69230 | 16946 ft | 250 kts | 91° |
| 2026-04-21 15:40 | -3.10511 | -58.67508 | 16944 ft | 250 kts | 91° |
| 2026-04-21 15:40 | -3.10576 | -58.65755 | 16940 ft | 250 kts | 91° |
| 2026-04-21 15:40 | -3.10642 | -58.64018 | 16946 ft | 250 kts | 91° |
| 2026-04-21 15:41 | -3.10709 | -58.62291 | 16944 ft | 250 kts | 91° |
| 2026-04-21 15:41 | -3.10777 | -58.60563 | 16944 ft | 250 kts | 91° |
| 2026-04-21 15:41 | -3.10845 | -58.58823 | 16943 ft | 250 kts | 91° |
| 2026-04-21 15:41 | -3.10911 | -58.57091 | 16943 ft | 250 kts | 91° |
| 2026-04-21 15:42 | -3.10975 | -58.55341 | 16940 ft | 250 kts | 91° |
| 2026-04-21 15:42 | -3.11037 | -58.53611 | 16939 ft | 250 kts | 91° |
| 2026-04-21 15:42 | -3.11097 | -58.51876 | 16938 ft | 250 kts | 91° |
| 2026-04-21 15:42 | -3.11159 | -58.50126 | 16937 ft | 250 kts | 91° |
| 2026-04-21 15:43 | -3.11220 | -58.48381 | 16938 ft | 249 kts | 91° |
| 2026-04-21 15:43 | -3.11069 | -58.46658 | 16942 ft | 248 kts | 82° |
| 2026-04-21 15:43 | -3.10847 | -58.44943 | 16944 ft | 248 kts | 82° |
| 2026-04-21 15:43 | -3.10624 | -58.43225 | 16949 ft | 248 kts | 82° |
| 2026-04-21 15:44 | -3.10405 | -58.41524 | 16946 ft | 248 kts | 82° |
| 2026-04-21 15:44 | -3.10180 | -58.39799 | 16946 ft | 248 kts | 82° |
| 2026-04-21 15:44 | -3.09957 | -58.38094 | 16947 ft | 248 kts | 82° |
| 2026-04-21 15:44 | -3.09700 | -58.36372 | 16948 ft | 248 kts | 81° |
| 2026-04-21 15:45 | -3.09444 | -58.34664 | 16943 ft | 249 kts | 81° |
| 2026-04-21 15:45 | -3.09188 | -58.32963 | 16943 ft | 249 kts | 81° |
| 2026-04-21 15:45 | -3.08926 | -58.31240 | 16942 ft | 249 kts | 81° |
| 2026-04-21 15:45 | -3.08666 | -58.29535 | 16939 ft | 250 kts | 81° |
| 2026-04-21 15:46 | -3.08400 | -58.27801 | 16937 ft | 250 kts | 81° |
| 2026-04-21 15:46 | -3.08139 | -58.26093 | 16938 ft | 250 kts | 81° |
| 2026-04-21 15:46 | -3.07874 | -58.24371 | 16936 ft | 250 kts | 81° |
| 2026-04-21 15:46 | -3.07607 | -58.22654 | 16937 ft | 250 kts | 81° |
| 2026-04-21 15:47 | -3.07316 | -58.20940 | 16937 ft | 250 kts | 80° |
| 2026-04-21 15:47 | -3.07016 | -58.19234 | 16938 ft | 250 kts | 80° |
| 2026-04-21 15:47 | -3.06712 | -58.17512 | 16937 ft | 250 kts | 80° |
| 2026-04-21 15:47 | -3.06405 | -58.15790 | 16938 ft | 250 kts | 80° |
| 2026-04-21 15:48 | -3.06103 | -58.14090 | 16939 ft | 250 kts | 80° |
| 2026-04-21 15:48 | -3.05795 | -58.12361 | 16940 ft | 251 kts | 80° |
| 2026-04-21 15:48 | -3.05495 | -58.10662 | 16939 ft | 251 kts | 80° |
| 2026-04-21 15:48 | -3.05190 | -58.08921 | 16937 ft | 251 kts | 80° |
| 2026-04-21 15:49 | -3.04889 | -58.07208 | 16938 ft | 251 kts | 80° |
| 2026-04-21 15:49 | -3.04586 | -58.05490 | 16937 ft | 250 kts | 80° |
| 2026-04-21 15:49 | -3.04285 | -58.03781 | 16938 ft | 250 kts | 80° |
| 2026-04-21 15:49 | -3.03986 | -58.02078 | 16943 ft | 250 kts | 80° |
| 2026-04-21 15:50 | -3.03680 | -58.00348 | 16938 ft | 251 kts | 80° |
| 2026-04-21 15:50 | -3.03371 | -57.98627 | 16938 ft | 251 kts | 80° |
| 2026-04-21 15:50 | -3.03058 | -57.96909 | 16938 ft | 251 kts | 80° |
| 2026-04-21 15:50 | -3.02745 | -57.95203 | 16939 ft | 251 kts | 80° |
| 2026-04-21 15:51 | -3.02432 | -57.93491 | 16937 ft | 251 kts | 80° |
| 2026-04-21 15:51 | -3.02122 | -57.91776 | 16938 ft | 251 kts | 80° |
| 2026-04-21 15:51 | -3.01810 | -57.90046 | 16938 ft | 251 kts | 80° |
| 2026-04-21 15:51 | -3.01502 | -57.88320 | 16939 ft | 251 kts | 80° |
| 2026-04-21 15:52 | -3.01194 | -57.86596 | 16938 ft | 251 kts | 80° |
| 2026-04-21 15:52 | -3.00890 | -57.84891 | 16938 ft | 251 kts | 80° |
| 2026-04-21 15:52 | -3.00683 | -57.83735 | 16938 ft | 251 kts | 80° |
| 2026-04-21 15:52 | -3.00274 | -57.81448 | 16937 ft | 251 kts | 80° |
| 2026-04-21 15:53 | -2.99967 | -57.79738 | 16938 ft | 251 kts | 80° |
| 2026-04-21 15:53 | -2.99655 | -57.78001 | 16938 ft | 251 kts | 80° |
| 2026-04-21 15:53 | -2.99349 | -57.76295 | 16937 ft | 251 kts | 80° |
| 2026-04-21 15:53 | -2.99039 | -57.74579 | 16938 ft | 251 kts | 80° |
| 2026-04-21 15:54 | -2.98728 | -57.72861 | 16939 ft | 251 kts | 80° |
| 2026-04-21 15:54 | -2.98417 | -57.71149 | 16936 ft | 251 kts | 80° |
| 2026-04-21 15:54 | -2.98104 | -57.69442 | 16941 ft | 251 kts | 80° |
| 2026-04-21 15:54 | -2.97787 | -57.67727 | 16937 ft | 251 kts | 80° |
| 2026-04-21 15:55 | -2.97463 | -57.65988 | 16939 ft | 251 kts | 80° |
| 2026-04-21 15:55 | -2.97145 | -57.64279 | 16938 ft | 251 kts | 80° |
| 2026-04-21 15:55 | -2.96827 | -57.62569 | 16941 ft | 251 kts | 80° |
| 2026-04-21 15:55 | -2.96505 | -57.60837 | 16938 ft | 251 kts | 80° |
| 2026-04-21 15:56 | -2.96193 | -57.59135 | 16936 ft | 251 kts | 80° |
| 2026-04-21 15:56 | -2.95874 | -57.57404 | 16937 ft | 251 kts | 80° |
| 2026-04-21 15:56 | -2.95561 | -57.55696 | 16934 ft | 251 kts | 80° |
| 2026-04-21 15:56 | -2.95245 | -57.53965 | 16936 ft | 251 kts | 80° |
| 2026-04-21 15:57 | -2.94932 | -57.52265 | 16937 ft | 251 kts | 80° |
| 2026-04-21 15:57 | -2.94613 | -57.50541 | 16939 ft | 251 kts | 80° |
| 2026-04-21 15:57 | -2.94286 | -57.48798 | 16937 ft | 251 kts | 80° |
| 2026-04-21 15:57 | -2.93964 | -57.47094 | 16936 ft | 251 kts | 80° |
| 2026-04-21 15:58 | -2.93639 | -57.45359 | 16934 ft | 251 kts | 80° |
| 2026-04-21 15:58 | -2.93316 | -57.43641 | 16936 ft | 251 kts | 80° |
| 2026-04-21 15:58 | -2.92993 | -57.41928 | 16940 ft | 251 kts | 80° |
| 2026-04-21 15:58 | -2.92662 | -57.40179 | 16647 ft | 264 kts | 80° |
| 2026-04-21 15:59 | -2.92320 | -57.38340 | 16251 ft | 277 kts | 80° |
| 2026-04-21 15:59 | -2.91964 | -57.36394 | 15793 ft | 287 kts | 80° |
| 2026-04-21 15:59 | -2.91605 | -57.34407 | 15302 ft | 293 kts | 80° |
| 2026-04-21 15:59 | -2.91251 | -57.32401 | 14743 ft | 297 kts | 80° |
| 2026-04-21 16:00 | -2.90894 | -57.30358 | 14164 ft | 299 kts | 80° |
| 2026-04-21 16:00 | -2.90545 | -57.28334 | 13571 ft | 294 kts | 79° |
| 2026-04-21 16:00 | -2.90209 | -57.26340 | 12974 ft | 289 kts | 80° |
| 2026-04-21 16:00 | -2.89880 | -57.24371 | 12386 ft | 286 kts | 80° |
| 2026-04-21 16:01 | -2.89552 | -57.22419 | 11798 ft | 285 kts | 79° |
| 2026-04-21 16:01 | -2.89229 | -57.20467 | 11206 ft | 283 kts | 79° |
| 2026-04-21 16:01 | -2.88901 | -57.18533 | 10619 ft | 281 kts | 80° |
| 2026-04-21 16:01 | -2.88577 | -57.16631 | 10018 ft | 275 kts | 79° |
| 2026-04-21 16:02 | -2.88258 | -57.14787 | 9424 ft | 269 kts | 80° |
| 2026-04-21 16:02 | -2.87935 | -57.12951 | 8814 ft | 265 kts | 80° |
| 2026-04-21 16:02 | -2.87616 | -57.11161 | 8217 ft | 263 kts | 79° |
| 2026-04-21 16:02 | -2.87293 | -57.09360 | 7631 ft | 263 kts | 79° |
| 2026-04-21 16:03 | -2.86971 | -57.07574 | 7048 ft | 262 kts | 79° |
| 2026-04-21 16:03 | -2.86646 | -57.05777 | 6456 ft | 261 kts | 80° |
| 2026-04-21 16:03 | -2.86326 | -57.04017 | 5854 ft | 256 kts | 79° |
| 2026-04-21 16:03 | -2.86010 | -57.02298 | 5255 ft | 251 kts | 79° |
| 2026-04-21 16:04 | -2.85695 | -57.00597 | 4650 ft | 248 kts | 79° |
| 2026-04-21 16:04 | -2.85384 | -56.98913 | 4051 ft | 245 kts | 79° |
| 2026-04-21 16:04 | -2.85080 | -56.97261 | 3460 ft | 242 kts | 79° |
| 2026-04-21 16:04 | -2.84381 | -56.95777 | 3039 ft | 231 kts | 47° |
| 2026-04-21 16:05 | -2.83291 | -56.94640 | 2699 ft | 221 kts | 47° |
| 2026-04-21 16:05 | -2.82235 | -56.93548 | 2422 ft | 215 kts | 46° |
| 2026-04-21 16:05 | -2.81207 | -56.92485 | 2184 ft | 213 kts | 47° |
| 2026-04-21 16:05 | -2.80176 | -56.91423 | 1945 ft | 211 kts | 46° |
| 2026-04-21 16:06 | -2.79156 | -56.90376 | 1731 ft | 208 kts | 46° |
| 2026-04-21 16:06 | -2.78165 | -56.89330 | 1542 ft | 205 kts | 47° |
| 2026-04-21 16:06 | -2.77216 | -56.88318 | 1554 ft | 191 kts | 47° |
| 2026-04-21 16:06 | -2.76308 | -56.87347 | 1568 ft | 191 kts | 48° |
| 2026-04-21 16:07 | -2.75388 | -56.86368 | 1575 ft | 198 kts | 47° |
| 2026-04-21 16:07 | -2.74438 | -56.85352 | 1573 ft | 194 kts | 47° |
| 2026-04-21 16:07 | -2.73531 | -56.84385 | 1568 ft | 187 kts | 47° |
| 2026-04-21 16:07 | -2.72647 | -56.83444 | 1553 ft | 185 kts | 48° |
| 2026-04-21 16:08 | -2.70980 | -56.81605 | 1383 ft | 161 kts | 49° |
| 2026-04-21 16:08 | -2.70314 | -56.80864 | 1139 ft | 130 kts | 49° |
| 2026-04-21 16:08 | -2.69716 | -56.80215 | 835 ft | 128 kts | 47° |
| 2026-04-21 16:09 | -2.69086 | -56.79562 | 559 ft | 131 kts | 46° |
| 2026-04-21 16:09 | -2.68457 | -56.78915 | 296 ft | 127 kts | 46° |
| 2026-04-21 16:09 | -2.67872 | -56.78299 | 80 ft | 118 kts | 46° |
| 2026-04-21 16:09 | -2.67409 | -56.77818 | 71 ft | 69 kts | 47° |
| 2026-04-21 16:10 | -2.67159 | -56.77555 | 70 ft | 40 kts | 46° |
| 2026-04-21 16:10 | -2.66997 | -56.77386 | 69 ft | 28 kts | 46° |
| 2026-04-21 16:10 | -2.66881 | -56.77267 | 68 ft | 20 kts | 46° |
| 2026-04-21 16:10 | -2.66813 | -56.77172 | 68 ft | 14 kts | 104° |
| 2026-04-21 16:11 | -2.66862 | -56.77119 | 68 ft | 0 kts | 137° |
| 2026-04-21 16:11 | -2.66868 | -56.77114 | 68 ft | 2 kts | 137° |
| 2026-04-21 16:11 | -2.66876 | -56.77106 | 68 ft | 2 kts | 136° |
| 2026-04-21 16:11 | -2.66897 | -56.77087 | 68 ft | 5 kts | 146° |
| 2026-04-21 16:12 | -2.66924 | -56.77090 | 68 ft | 6 kts | 205° |
| 2026-04-21 16:12 | -2.66948 | -56.77070 | 68 ft | 4 kts | 83° |
| 2026-04-21 16:12 | -2.66947 | -56.77060 | 68 ft | 0 kts | 83° |